Terminal Aerodrome Forecast
Issued by NWS Sterling, VA

Current Version | Previous Version | Graphics & Text | Print | Product List | Glossary On
Versions: 1 2 3 4 5 6 7 8 9 10 11 12
755
FTUS41 KLWX 041734
TAFMRB
TAF
KMRB 041734Z 0418/0518 32009KT P6SM BKN050
     FM051000 32010G20KT P6SM SCT050=

USA.gov is the U.S. government's official web portal to all federal, state and local government web resources and services.